Airfield :
LOGIN :

Register | Disclaimer

   EN    FR    IT 

 










Legend :    VFR   Marginal VFR   IFR   Intensive IFR   Very Intensive IFR
Visi :
Ceiling :
>= 8 km
>= 3000ft
5 to 8 km
1000 to 3000 ft
1500m to 5 km
500 to 1000 ft
800 to 1500m
200 to 500 ft
< 800m
< 200 ft
Symbols :   Thunderstorms  Fog  Heavy snow  Heavy precipitations  Wind > 20 kt
SIGMETs :     Misc.  Thunderstorms  Icing  Turbulence  Mountain Waves  Volcanic Ashes







- Airport Elevation : 80 ft
- IATA code : LPL
- Download approach charts


EGGP - Liverpool John Lennon

CURRENT METAR :
  • 201820Z 31004KT 9000 SCT006 03/03 Q1006

EXPIRED METARs :
  • 201750Z 31005KT 9000 SCT008 03/03 Q1005
  • 201720Z 26005KT 9999 FEW015 BKN048 03/03 Q1004
  • 201650Z 29003KT 9999 FEW015 BKN048 03/02 Q1003
  • 201620Z VRB03KT 9999 SCT010 BKN015 03/03 Q1003

TAF TAF EGGP
Valid from the 20 at 18:00 until the 21 at 18:00 UTC


201702Z 2018/2118 VRB03KT 9999 FEW004 SCT015
BECMG 2018/2021 3000 BR BKN005
PROB30 2020/2106 0200 FG BKN001
BECMG 2106/2109 16012KT 8000 RA BKN008
TEMPO 2107/2118 3000 RADZ BKN004
ATIS : +44 151 907 2000 (option 5 or ext 5150)
Met : +44 871 750 5150
No reported NOTAMs for that airfield.
1 SIGMET reported for the London FIR (EGTT) :
 
Severe turbulence
EGTT SIGMET 06 VALID 201500/201900 EGRR
EGTT LONDON FIR SEV TURB FCST S OF LINE N5000 W00200 - N5100 W00800 SFC/FL060 MOV S 15KT WKN=



MET'MAP, your aeronautical weather chart ! - Copyright ORBIFLY December 2007 - Disclaimer

ORBIFLY MET'MAP TEAM :

Programming & Development : Alexandra Zaïnal
Concept & Development : Baudouin d'Aumeries
Co-Development & Prog : Marc-Olivier Méhu
Technical & hardware support : Manuel Goepfert

Contact : metmap@orbifly.com




SOURCES & CREDITS :

   NOAA